sensor_id;sensor_type;location;lat;lon;timestamp;temperature;humidity
10062;DHT22;5070;52.382;5.270;2024-03-06T00:01:45;21.00;63.20
10062;DHT22;5070;52.382;5.270;2024-03-06T00:04:13;21.10;63.20
10062;DHT22;5070;52.382;5.270;2024-03-06T00:06:46;21.00;63.00
10062;DHT22;5070;52.382;5.270;2024-03-06T00:09:14;21.00;62.90
10062;DHT22;5070;52.382;5.270;2024-03-06T00:11:42;21.00;62.80
10062;DHT22;5070;52.382;5.270;2024-03-06T00:14:11;21.00;62.90
10062;DHT22;5070;52.382;5.270;2024-03-06T00:16:39;21.00;62.60
10062;DHT22;5070;52.382;5.270;2024-03-06T00:19:07;21.00;63.10
10062;DHT22;5070;52.382;5.270;2024-03-06T00:21:35;21.00;63.20
10062;DHT22;5070;52.382;5.270;2024-03-06T00:24:06;20.90;63.10
10062;DHT22;5070;52.382;5.270;2024-03-06T00:26:34;20.90;63.10
10062;DHT22;5070;52.382;5.270;2024-03-06T00:29:02;20.90;63.20
10062;DHT22;5070;52.382;5.270;2024-03-06T00:31:30;20.90;63.20
10062;DHT22;5070;52.382;5.270;2024-03-06T00:33:58;20.90;63.20
10062;DHT22;5070;52.382;5.270;2024-03-06T00:36:26;20.90;63.20
10062;DHT22;5070;52.382;5.270;2024-03-06T00:38:54;20.80;63.00
10062;DHT22;5070;52.382;5.270;2024-03-06T00:41:23;20.90;63.20
10062;DHT22;5070;52.382;5.270;2024-03-06T00:43:51;20.80;63.20
10062;DHT22;5070;52.382;5.270;2024-03-06T00:46:19;20.80;63.20
10062;DHT22;5070;52.382;5.270;2024-03-06T00:48:48;20.80;63.30
10062;DHT22;5070;52.382;5.270;2024-03-06T00:51:16;20.80;63.30
10062;DHT22;5070;52.382;5.270;2024-03-06T00:53:48;20.80;63.30
10062;DHT22;5070;52.382;5.270;2024-03-06T00:56:16;20.70;63.20
10062;DHT22;5070;52.382;5.270;2024-03-06T00:58:45;20.70;63.20
10062;DHT22;5070;52.382;5.270;2024-03-06T01:01:15;20.70;63.20
10062;DHT22;5070;52.382;5.270;2024-03-06T01:03:43;20.70;63.10
10062;DHT22;5070;52.382;5.270;2024-03-06T01:06:11;20.70;63.10
10062;DHT22;5070;52.382;5.270;2024-03-06T01:08:39;20.60;63.00
10062;DHT22;5070;52.382;5.270;2024-03-06T01:11:07;20.60;62.90
10062;DHT22;5070;52.382;5.270;2024-03-06T01:13:35;20.60;62.90
10062;DHT22;5070;52.382;5.270;2024-03-06T01:16:06;20.60;62.80
10062;DHT22;5070;52.382;5.270;2024-03-06T01:18:34;20.60;62.80
10062;DHT22;5070;52.382;5.270;2024-03-06T01:21:02;20.60;62.80
10062;DHT22;5070;52.382;5.270;2024-03-06T01:23:30;20.60;62.70
10062;DHT22;5070;52.382;5.270;2024-03-06T01:25:58;20.50;62.70
10062;DHT22;5070;52.382;5.270;2024-03-06T01:28:26;20.50;62.60
10062;DHT22;5070;52.382;5.270;2024-03-06T01:30:55;20.50;62.50
10062;DHT22;5070;52.382;5.270;2024-03-06T01:33:25;20.50;62.40
10062;DHT22;5070;52.382;5.270;2024-03-06T01:35:54;20.50;62.40
10062;DHT22;5070;52.382;5.270;2024-03-06T01:38:22;20.50;62.40
10062;DHT22;5070;52.382;5.270;2024-03-06T01:40:50;20.40;62.30
10062;DHT22;5070;52.382;5.270;2024-03-06T01:43:19;20.40;62.20
10062;DHT22;5070;52.382;5.270;2024-03-06T01:45:48;20.40;62.20
10062;DHT22;5070;52.382;5.270;2024-03-06T01:48:17;20.50;62.30
10062;DHT22;5070;52.382;5.270;2024-03-06T01:50:49;20.40;62.10
10062;DHT22;5070;52.382;5.270;2024-03-06T01:53:18;20.40;62.20
10062;DHT22;5070;52.382;5.270;2024-03-06T01:55:47;20.40;62.20
10062;DHT22;5070;52.382;5.270;2024-03-06T01:58:16;20.30;62.00
10062;DHT22;5070;52.382;5.270;2024-03-06T02:00:44;20.30;62.10
10062;DHT22;5070;52.382;5.270;2024-03-06T02:03:12;20.30;62.00
10062;DHT22;5070;52.382;5.270;2024-03-06T02:05:41;20.30;62.00
10062;DHT22;5070;52.382;5.270;2024-03-06T02:08:11;20.30;62.00
10062;DHT22;5070;52.382;5.270;2024-03-06T02:10:39;20.30;61.90
10062;DHT22;5070;52.382;5.270;2024-03-06T02:13:08;20.30;61.90
10062;DHT22;5070;52.382;5.270;2024-03-06T02:15:36;20.30;61.90
10062;DHT22;5070;52.382;5.270;2024-03-06T02:18:05;20.20;61.90
10062;DHT22;5070;52.382;5.270;2024-03-06T02:20:35;20.20;61.90
10062;DHT22;5070;52.382;5.270;2024-03-06T02:23:03;20.20;61.90
10062;DHT22;5070;52.382;5.270;2024-03-06T02:25:31;20.20;61.90
10062;DHT22;5070;52.382;5.270;2024-03-06T02:27:59;20.20;61.90
10062;DHT22;5070;52.382;5.270;2024-03-06T02:30:27;20.10;61.70
10062;DHT22;5070;52.382;5.270;2024-03-06T02:32:57;20.10;61.70
10062;DHT22;5070;52.382;5.270;2024-03-06T02:35:26;20.10;61.70
10062;DHT22;5070;52.382;5.270;2024-03-06T02:37:55;20.10;61.70
10062;DHT22;5070;52.382;5.270;2024-03-06T02:40:24;20.10;61.70
10062;DHT22;5070;52.382;5.270;2024-03-06T02:42:52;20.10;61.70
10062;DHT22;5070;52.382;5.270;2024-03-06T02:45:20;20.10;61.60
10062;DHT22;5070;52.382;5.270;2024-03-06T02:47:48;20.10;61.60
10062;DHT22;5070;52.382;5.270;2024-03-06T02:50:16;20.10;61.60
10062;DHT22;5070;52.382;5.270;2024-03-06T02:52:44;20.00;61.50
10062;DHT22;5070;52.382;5.270;2024-03-06T02:55:13;20.00;61.90
10062;DHT22;5070;52.382;5.270;2024-03-06T02:57:44;20.00;61.50
10062;DHT22;5070;52.382;5.270;2024-03-06T03:00:13;20.00;61.40
10062;DHT22;5070;52.382;5.270;2024-03-06T03:02:42;20.00;61.40
10062;DHT22;5070;52.382;5.270;2024-03-06T03:05:10;20.00;61.30
10062;DHT22;5070;52.382;5.270;2024-03-06T03:07:39;20.00;61.40
10062;DHT22;5070;52.382;5.270;2024-03-06T03:10:07;20.00;61.40
10062;DHT22;5070;52.382;5.270;2024-03-06T03:12:39;19.90;61.30
10062;DHT22;5070;52.382;5.270;2024-03-06T03:15:08;19.90;61.30
10062;DHT22;5070;52.382;5.270;2024-03-06T03:17:36;19.90;61.30
10062;DHT22;5070;52.382;5.270;2024-03-06T03:20:05;19.90;61.30
10062;DHT22;5070;52.382;5.270;2024-03-06T03:22:37;19.90;61.30
10062;DHT22;5070;52.382;5.270;2024-03-06T03:25:07;19.90;61.30
10062;DHT22;5070;52.382;5.270;2024-03-06T03:27:36;19.90;61.30
10062;DHT22;5070;52.382;5.270;2024-03-06T03:30:07;19.90;61.30
10062;DHT22;5070;52.382;5.270;2024-03-06T03:32:37;19.80;61.20
10062;DHT22;5070;52.382;5.270;2024-03-06T03:35:05;19.80;61.20
10062;DHT22;5070;52.382;5.270;2024-03-06T03:37:34;19.80;61.20
10062;DHT22;5070;52.382;5.270;2024-03-06T03:40:02;19.80;61.20
10062;DHT22;5070;52.382;5.270;2024-03-06T03:42:30;19.80;61.20
10062;DHT22;5070;52.382;5.270;2024-03-06T03:44:58;19.80;61.20
10062;DHT22;5070;52.382;5.270;2024-03-06T03:47:28;19.80;61.30
10062;DHT22;5070;52.382;5.270;2024-03-06T03:49:55;19.70;61.20
10062;DHT22;5070;52.382;5.270;2024-03-06T03:52:35;19.70;61.30
10062;DHT22;5070;52.382;5.270;2024-03-06T03:55:08;19.70;61.20
10062;DHT22;5070;52.382;5.270;2024-03-06T03:57:36;19.70;61.10
10062;DHT22;5070;52.382;5.270;2024-03-06T04:00:05;19.70;61.10
10062;DHT22;5070;52.382;5.270;2024-03-06T04:02:40;19.70;61.20
10062;DHT22;5070;52.382;5.270;2024-03-06T04:05:08;19.60;61.00
10062;DHT22;5070;52.382;5.270;2024-03-06T04:07:37;19.60;61.10
10062;DHT22;5070;52.382;5.270;2024-03-06T04:10:06;19.60;61.10
10062;DHT22;5070;52.382;5.270;2024-03-06T04:12:37;19.60;61.10
10062;DHT22;5070;52.382;5.270;2024-03-06T04:15:07;19.60;61.10
10062;DHT22;5070;52.382;5.270;2024-03-06T04:17:35;19.60;61.10
10062;DHT22;5070;52.382;5.270;2024-03-06T04:20:06;19.50;61.00
10062;DHT22;5070;52.382;5.270;2024-03-06T04:22:35;19.60;61.10
10062;DHT22;5070;52.382;5.270;2024-03-06T04:25:03;19.50;61.00
10062;DHT22;5070;52.382;5.270;2024-03-06T04:27:31;19.50;61.10
10062;DHT22;5070;52.382;5.270;2024-03-06T04:29:59;19.50;61.00
10062;DHT22;5070;52.382;5.270;2024-03-06T04:32:27;19.50;61.10
10062;DHT22;5070;52.382;5.270;2024-03-06T04:34:55;19.50;61.10
10062;DHT22;5070;52.382;5.270;2024-03-06T04:37:25;19.50;61.00
10062;DHT22;5070;52.382;5.270;2024-03-06T04:39:53;19.50;61.20
10062;DHT22;5070;52.382;5.270;2024-03-06T04:42:21;19.50;61.10
10062;DHT22;5070;52.382;5.270;2024-03-06T04:44:49;19.40;61.00
10062;DHT22;5070;52.382;5.270;2024-03-06T04:47:17;19.40;61.10
10062;DHT22;5070;52.382;5.270;2024-03-06T04:49:46;19.40;61.10
10062;DHT22;5070;52.382;5.270;2024-03-06T04:52:13;19.40;61.00
10062;DHT22;5070;52.382;5.270;2024-03-06T04:54:43;19.40;61.10
10062;DHT22;5070;52.382;5.270;2024-03-06T04:57:11;19.40;61.10
10062;DHT22;5070;52.382;5.270;2024-03-06T04:59:39;19.30;61.00
10062;DHT22;5070;52.382;5.270;2024-03-06T05:02:07;19.40;61.00
10062;DHT22;5070;52.382;5.270;2024-03-06T05:04:36;19.30;60.90
10062;DHT22;5070;52.382;5.270;2024-03-06T05:07:21;19.40;61.00
10062;DHT22;5070;52.382;5.270;2024-03-06T05:10:08;19.30;60.90
10062;DHT22;5070;52.382;5.270;2024-03-06T05:12:54;19.30;60.90
10062;DHT22;5070;52.382;5.270;2024-03-06T05:15:39;19.30;61.00
10062;DHT22;5070;52.382;5.270;2024-03-06T05:18:25;19.30;61.00
10062;DHT22;5070;52.382;5.270;2024-03-06T05:21:10;19.30;61.00
10062;DHT22;5070;52.382;5.270;2024-03-06T05:23:56;19.30;60.90
10062;DHT22;5070;52.382;5.270;2024-03-06T05:26:43;19.30;60.90
10062;DHT22;5070;52.382;5.270;2024-03-06T05:29:29;19.20;60.90
10062;DHT22;5070;52.382;5.270;2024-03-06T05:32:14;19.20;60.90
10062;DHT22;5070;52.382;5.270;2024-03-06T05:35:03;19.20;60.90
10062;DHT22;5070;52.382;5.270;2024-03-06T05:37:48;19.20;60.90
10062;DHT22;5070;52.382;5.270;2024-03-06T05:40:34;19.20;61.00
10062;DHT22;5070;52.382;5.270;2024-03-06T05:43:22;19.20;61.10
10062;DHT22;5070;52.382;5.270;2024-03-06T05:46:08;19.30;60.70
10062;DHT22;5070;52.382;5.270;2024-03-06T05:48:53;19.40;61.30
10062;DHT22;5070;52.382;5.270;2024-03-06T05:51:39;19.50;60.90
10062;DHT22;5070;52.382;5.270;2024-03-06T05:54:25;19.50;60.90
10062;DHT22;5070;52.382;5.270;2024-03-06T05:57:11;19.60;60.50
10062;DHT22;5070;52.382;5.270;2024-03-06T05:59:58;19.60;60.30
10062;DHT22;5070;52.382;5.270;2024-03-06T06:02:26;19.70;59.90
10062;DHT22;5070;52.382;5.270;2024-03-06T06:04:54;19.70;59.90
10062;DHT22;5070;52.382;5.270;2024-03-06T06:07:43;19.80;59.80
10062;DHT22;5070;52.382;5.270;2024-03-06T06:10:11;19.80;59.60
10062;DHT22;5070;52.382;5.270;2024-03-06T06:12:41;19.80;59.60
10062;DHT22;5070;52.382;5.270;2024-03-06T06:15:11;19.90;59.50
10062;DHT22;5070;52.382;5.270;2024-03-06T06:17:39;19.90;59.40
10062;DHT22;5070;52.382;5.270;2024-03-06T06:20:10;19.90;59.40
10062;DHT22;5070;52.382;5.270;2024-03-06T06:22:43;20.00;59.30
10062;DHT22;5070;52.382;5.270;2024-03-06T06:25:11;20.00;59.70
10062;DHT22;5070;52.382;5.270;2024-03-06T06:27:40;20.00;59.20
10062;DHT22;5070;52.382;5.270;2024-03-06T06:30:08;20.10;59.20
10062;DHT22;5070;52.382;5.270;2024-03-06T06:32:40;20.10;59.10
10062;DHT22;5070;52.382;5.270;2024-03-06T06:35:10;20.20;59.10
10062;DHT22;5070;52.382;5.270;2024-03-06T06:37:40;20.20;59.00
10062;DHT22;5070;52.382;5.270;2024-03-06T06:40:09;20.30;58.90
10062;DHT22;5070;52.382;5.270;2024-03-06T06:42:44;20.30;58.80
10062;DHT22;5070;52.382;5.270;2024-03-06T06:45:14;20.30;58.80
10062;DHT22;5070;52.382;5.270;2024-03-06T06:47:43;20.30;58.70
10062;DHT22;5070;52.382;5.270;2024-03-06T06:50:12;20.40;58.60
10062;DHT22;5070;52.382;5.270;2024-03-06T06:52:40;20.40;58.60
10062;DHT22;5070;52.382;5.270;2024-03-06T06:55:08;20.40;58.50
10062;DHT22;5070;52.382;5.270;2024-03-06T06:57:38;20.40;58.50
10062;DHT22;5070;52.382;5.270;2024-03-06T07:00:07;20.40;59.00
10062;DHT22;5070;52.382;5.270;2024-03-06T07:02:39;20.50;60.50
10062;DHT22;5070;52.382;5.270;2024-03-06T07:05:09;20.50;59.10
10062;DHT22;5070;52.382;5.270;2024-03-06T07:07:40;20.60;58.70
10062;DHT22;5070;52.382;5.270;2024-03-06T07:10:09;20.60;58.70
10062;DHT22;5070;52.382;5.270;2024-03-06T07:12:37;20.60;59.20
10062;DHT22;5070;52.382;5.270;2024-03-06T07:15:06;20.60;58.90
10062;DHT22;5070;52.382;5.270;2024-03-06T07:17:36;20.60;59.10
10062;DHT22;5070;52.382;5.270;2024-03-06T07:20:06;20.60;59.30
10062;DHT22;5070;52.382;5.270;2024-03-06T07:22:36;20.60;59.30
10062;DHT22;5070;52.382;5.270;2024-03-06T07:25:05;20.70;59.00
10062;DHT22;5070;52.382;5.270;2024-03-06T07:27:33;20.70;58.80
10062;DHT22;5070;52.382;5.270;2024-03-06T07:30:01;20.80;58.60
10062;DHT22;5070;52.382;5.270;2024-03-06T07:32:29;20.80;59.20
10062;DHT22;5070;52.382;5.270;2024-03-06T07:34:58;20.80;59.30
10062;DHT22;5070;52.382;5.270;2024-03-06T07:37:26;20.80;58.90
10062;DHT22;5070;52.382;5.270;2024-03-06T07:39:55;20.90;58.80
10062;DHT22;5070;52.382;5.270;2024-03-06T07:42:25;20.80;58.60
10062;DHT22;5070;52.382;5.270;2024-03-06T07:44:53;20.80;58.70
10062;DHT22;5070;52.382;5.270;2024-03-06T07:47:21;20.80;58.80
10062;DHT22;5070;52.382;5.270;2024-03-06T07:49:49;20.80;58.90
10062;DHT22;5070;52.382;5.270;2024-03-06T07:52:17;20.80;59.00
10062;DHT22;5070;52.382;5.270;2024-03-06T07:54:45;20.80;59.00
10062;DHT22;5070;52.382;5.270;2024-03-06T07:57:15;20.70;59.70
10062;DHT22;5070;52.382;5.270;2024-03-06T07:59:43;20.70;59.90
10062;DHT22;5070;52.382;5.270;2024-03-06T08:02:13;20.70;59.90
10062;DHT22;5070;52.382;5.270;2024-03-06T08:04:41;20.70;59.90
10062;DHT22;5070;52.382;5.270;2024-03-06T08:07:09;20.70;59.80
10062;DHT22;5070;52.382;5.270;2024-03-06T08:09:37;20.70;59.50
10062;DHT22;5070;52.382;5.270;2024-03-06T08:12:06;20.70;59.90
10062;DHT22;5070;52.382;5.270;2024-03-06T08:14:35;20.70;59.80
10062;DHT22;5070;52.382;5.270;2024-03-06T08:17:03;20.70;59.70
10062;DHT22;5070;52.382;5.270;2024-03-06T08:19:31;20.70;59.70
10062;DHT22;5070;52.382;5.270;2024-03-06T08:22:00;20.70;59.60
10062;DHT22;5070;52.382;5.270;2024-03-06T08:24:32;20.70;59.70
10062;DHT22;5070;52.382;5.270;2024-03-06T08:27:00;20.70;59.70
10062;DHT22;5070;52.382;5.270;2024-03-06T08:29:28;20.70;59.70
10062;DHT22;5070;52.382;5.270;2024-03-06T08:31:58;20.70;59.60
10062;DHT22;5070;52.382;5.270;2024-03-06T08:34:27;20.70;59.70
10062;DHT22;5070;52.382;5.270;2024-03-06T08:36:55;20.70;59.50
10062;DHT22;5070;52.382;5.270;2024-03-06T08:39:23;20.70;59.50
10062;DHT22;5070;52.382;5.270;2024-03-06T08:41:52;20.70;59.50
10062;DHT22;5070;52.382;5.270;2024-03-06T08:44:20;20.70;59.90
10062;DHT22;5070;52.382;5.270;2024-03-06T08:46:48;20.70;59.50
10062;DHT22;5070;52.382;5.270;2024-03-06T08:49:17;20.70;59.50
10062;DHT22;5070;52.382;5.270;2024-03-06T08:51:45;20.70;59.40
10062;DHT22;5070;52.382;5.270;2024-03-06T08:54:13;20.70;59.30
10062;DHT22;5070;52.382;5.270;2024-03-06T08:56:43;20.70;59.20
10062;DHT22;5070;52.382;5.270;2024-03-06T08:59:12;20.70;59.30
10062;DHT22;5070;52.382;5.270;2024-03-06T09:01:39;20.70;59.20
10062;DHT22;5070;52.382;5.270;2024-03-06T09:04:07;20.70;59.30
10062;DHT22;5070;52.382;5.270;2024-03-06T09:06:37;20.70;59.30
10062;DHT22;5070;52.382;5.270;2024-03-06T09:09:05;20.70;59.20
10062;DHT22;5070;52.382;5.270;2024-03-06T09:11:33;20.70;59.20
10062;DHT22;5070;52.382;5.270;2024-03-06T09:14:01;20.70;59.30
10062;DHT22;5070;52.382;5.270;2024-03-06T09:16:31;20.70;59.30
10062;DHT22;5070;52.382;5.270;2024-03-06T09:18:59;20.70;59.20
10062;DHT22;5070;52.382;5.270;2024-03-06T09:21:27;20.80;59.20
10062;DHT22;5070;52.382;5.270;2024-03-06T09:23:56;20.70;59.20
10062;DHT22;5070;52.382;5.270;2024-03-06T09:26:24;20.70;59.20
10062;DHT22;5070;52.382;5.270;2024-03-06T09:28:52;20.70;59.20
10062;DHT22;5070;52.382;5.270;2024-03-06T09:31:20;20.70;59.70
10062;DHT22;5070;52.382;5.270;2024-03-06T09:33:48;20.70;59.30
10062;DHT22;5070;52.382;5.270;2024-03-06T09:36:16;20.70;59.90
10062;DHT22;5070;52.382;5.270;2024-03-06T09:38:44;20.70;60.40
10062;DHT22;5070;52.382;5.270;2024-03-06T09:41:14;20.70;60.30
10062;DHT22;5070;52.382;5.270;2024-03-06T09:43:43;20.70;60.30
10062;DHT22;5070;52.382;5.270;2024-03-06T09:46:12;20.70;60.30
10062;DHT22;5070;52.382;5.270;2024-03-06T09:48:44;20.60;60.30
10062;DHT22;5070;52.382;5.270;2024-03-06T09:51:13;20.60;60.70
10062;DHT22;5070;52.382;5.270;2024-03-06T09:53:42;20.60;60.50
10062;DHT22;5070;52.382;5.270;2024-03-06T09:56:10;20.60;60.00
10062;DHT22;5070;52.382;5.270;2024-03-06T09:58:40;20.70;59.70
10062;DHT22;5070;52.382;5.270;2024-03-06T10:01:10;20.70;59.60
10062;DHT22;5070;52.382;5.270;2024-03-06T10:03:38;20.70;59.60
10062;DHT22;5070;52.382;5.270;2024-03-06T10:06:08;20.70;59.70
10062;DHT22;5070;52.382;5.270;2024-03-06T10:08:42;20.70;59.60
10062;DHT22;5070;52.382;5.270;2024-03-06T10:11:11;20.70;59.70
10062;DHT22;5070;52.382;5.270;2024-03-06T10:13:40;20.70;59.70
10062;DHT22;5070;52.382;5.270;2024-03-06T10:16:09;20.70;59.70
10062;DHT22;5070;52.382;5.270;2024-03-06T10:18:38;20.70;59.70
10062;DHT22;5070;52.382;5.270;2024-03-06T10:21:06;20.70;59.70
10062;DHT22;5070;52.382;5.270;2024-03-06T10:23:35;20.80;59.60
10062;DHT22;5070;52.382;5.270;2024-03-06T10:26:07;20.80;61.80
10062;DHT22;5070;52.382;5.270;2024-03-06T10:28:35;20.80;63.20
10062;DHT22;5070;52.382;5.270;2024-03-06T10:31:04;20.80;61.50
10062;DHT22;5070;52.382;5.270;2024-03-06T10:33:34;20.80;60.50
10062;DHT22;5070;52.382;5.270;2024-03-06T10:36:05;20.80;60.10
10062;DHT22;5070;52.382;5.270;2024-03-06T10:38:35;20.80;60.00
10062;DHT22;5070;52.382;5.270;2024-03-06T10:41:05;20.80;60.00
10062;DHT22;5070;52.382;5.270;2024-03-06T10:43:36;20.80;60.00
10062;DHT22;5070;52.382;5.270;2024-03-06T10:46:10;20.80;60.00
10062;DHT22;5070;52.382;5.270;2024-03-06T10:48:40;20.80;60.10
10062;DHT22;5070;52.382;5.270;2024-03-06T10:51:10;20.80;60.10
10062;DHT22;5070;52.382;5.270;2024-03-06T10:53:39;20.80;60.10
10062;DHT22;5070;52.382;5.270;2024-03-06T10:56:09;20.80;60.00
10062;DHT22;5070;52.382;5.270;2024-03-06T10:58:38;20.90;60.20
10062;DHT22;5070;52.382;5.270;2024-03-06T11:01:08;20.90;60.10
10062;DHT22;5070;52.382;5.270;2024-03-06T11:03:37;20.90;60.10
10062;DHT22;5070;52.382;5.270;2024-03-06T11:06:06;20.90;60.20
10062;DHT22;5070;52.382;5.270;2024-03-06T11:08:34;20.90;60.20
10062;DHT22;5070;52.382;5.270;2024-03-06T11:11:22;20.90;60.20
10062;DHT22;5070;52.382;5.270;2024-03-06T11:13:53;20.90;60.20
10062;DHT22;5070;52.382;5.270;2024-03-06T11:16:28;21.00;60.20
10062;DHT22;5070;52.382;5.270;2024-03-06T11:19:06;21.00;60.20
10062;DHT22;5070;52.382;5.270;2024-03-06T11:21:45;21.00;60.20
10062;DHT22;5070;52.382;5.270;2024-03-06T11:24:16;21.00;60.30
10062;DHT22;5070;52.382;5.270;2024-03-06T11:26:50;21.00;60.20
10062;DHT22;5070;52.382;5.270;2024-03-06T11:29:19;21.00;60.30
10062;DHT22;5070;52.382;5.270;2024-03-06T11:32:08;21.10;60.40
10062;DHT22;5070;52.382;5.270;2024-03-06T11:34:37;21.10;60.30
10062;DHT22;5070;52.382;5.270;2024-03-06T11:37:06;21.10;60.30
10062;DHT22;5070;52.382;5.270;2024-03-06T11:39:37;21.10;60.30
10062;DHT22;5070;52.382;5.270;2024-03-06T11:42:06;21.10;60.30
10062;DHT22;5070;52.382;5.270;2024-03-06T11:44:36;21.20;60.30
10062;DHT22;5070;52.382;5.270;2024-03-06T11:47:06;21.20;60.20
10062;DHT22;5070;52.382;5.270;2024-03-06T11:49:37;21.20;60.20
10062;DHT22;5070;52.382;5.270;2024-03-06T11:52:07;21.20;60.20
10062;DHT22;5070;52.382;5.270;2024-03-06T11:54:37;21.20;60.20
10062;DHT22;5070;52.382;5.270;2024-03-06T11:57:05;21.20;60.20
10062;DHT22;5070;52.382;5.270;2024-03-06T11:59:34;21.20;60.30
10062;DHT22;5070;52.382;5.270;2024-03-06T12:02:06;21.10;60.30
10062;DHT22;5070;52.382;5.270;2024-03-06T12:04:36;21.10;60.30
10062;DHT22;5070;52.382;5.270;2024-03-06T12:07:06;21.20;60.40
10062;DHT22;5070;52.382;5.270;2024-03-06T12:09:36;21.20;60.40
10062;DHT22;5070;52.382;5.270;2024-03-06T12:12:09;21.20;60.30
10062;DHT22;5070;52.382;5.270;2024-03-06T12:14:40;21.20;60.20
10062;DHT22;5070;52.382;5.270;2024-03-06T12:17:12;21.20;60.30
10062;DHT22;5070;52.382;5.270;2024-03-06T12:19:43;21.20;60.40
10062;DHT22;5070;52.382;5.270;2024-03-06T12:22:12;21.20;60.40
10062;DHT22;5070;52.382;5.270;2024-03-06T12:24:42;21.20;60.60
10062;DHT22;5070;52.382;5.270;2024-03-06T12:27:10;21.20;60.40
10062;DHT22;5070;52.382;5.270;2024-03-06T12:29:39;21.20;60.40
10062;DHT22;5070;52.382;5.270;2024-03-06T12:32:16;21.20;60.70
10062;DHT22;5070;52.382;5.270;2024-03-06T12:34:57;21.20;60.30
10062;DHT22;5070;52.382;5.270;2024-03-06T12:37:30;21.20;60.30
10062;DHT22;5070;52.382;5.270;2024-03-06T12:39:59;21.30;64.80
10062;DHT22;5070;52.382;5.270;2024-03-06T12:42:27;21.40;64.70
10062;DHT22;5070;52.382;5.270;2024-03-06T12:44:55;21.50;64.60
10062;DHT22;5070;52.382;5.270;2024-03-06T12:47:24;21.50;65.00
10062;DHT22;5070;52.382;5.270;2024-03-06T12:49:52;21.50;64.50
10062;DHT22;5070;52.382;5.270;2024-03-06T12:52:21;21.50;64.20
10062;DHT22;5070;52.382;5.270;2024-03-06T12:54:50;21.50;63.40
10062;DHT22;5070;52.382;5.270;2024-03-06T12:57:18;21.50;64.60
10062;DHT22;5070;52.382;5.270;2024-03-06T12:59:45;21.60;63.70
10062;DHT22;5070;52.382;5.270;2024-03-06T13:02:14;21.60;63.70
10062;DHT22;5070;52.382;5.270;2024-03-06T13:04:42;21.60;63.50
10062;DHT22;5070;52.382;5.270;2024-03-06T13:07:10;21.60;63.40
10062;DHT22;5070;52.382;5.270;2024-03-06T13:09:40;21.60;72.10
10062;DHT22;5070;52.382;5.270;2024-03-06T13:12:09;21.60;70.20
10062;DHT22;5070;52.382;5.270;2024-03-06T13:14:37;21.60;67.60
10062;DHT22;5070;52.382;5.270;2024-03-06T13:17:05;21.60;66.10
10062;DHT22;5070;52.382;5.270;2024-03-06T13:19:34;21.60;65.00
10062;DHT22;5070;52.382;5.270;2024-03-06T13:22:02;21.60;63.70
10062;DHT22;5070;52.382;5.270;2024-03-06T13:24:34;21.60;63.30
10062;DHT22;5070;52.382;5.270;2024-03-06T13:27:05;21.60;63.10
10062;DHT22;5070;52.382;5.270;2024-03-06T13:29:33;21.60;63.00
10062;DHT22;5070;52.382;5.270;2024-03-06T13:32:01;21.60;63.00
10062;DHT22;5070;52.382;5.270;2024-03-06T13:34:29;21.60;62.80
10062;DHT22;5070;52.382;5.270;2024-03-06T13:36:58;21.60;62.50
10062;DHT22;5070;52.382;5.270;2024-03-06T13:39:26;21.60;62.30
10062;DHT22;5070;52.382;5.270;2024-03-06T13:41:54;21.50;62.00
10062;DHT22;5070;52.382;5.270;2024-03-06T13:44:23;21.50;61.90
10062;DHT22;5070;52.382;5.270;2024-03-06T13:46:51;21.50;61.90
10062;DHT22;5070;52.382;5.270;2024-03-06T13:49:38;21.50;61.80
10062;DHT22;5070;52.382;5.270;2024-03-06T13:52:10;21.50;61.80
10062;DHT22;5070;52.382;5.270;2024-03-06T13:54:42;21.50;61.90
10062;DHT22;5070;52.382;5.270;2024-03-06T13:57:10;21.50;61.80
10062;DHT22;5070;52.382;5.270;2024-03-06T13:59:40;21.50;61.70
10062;DHT22;5070;52.382;5.270;2024-03-06T14:02:12;21.50;63.00
10062;DHT22;5070;52.382;5.270;2024-03-06T14:04:40;21.40;62.70
10062;DHT22;5070;52.382;5.270;2024-03-06T14:07:08;21.40;62.60
10062;DHT22;5070;52.382;5.270;2024-03-06T14:09:38;21.40;63.30
10062;DHT22;5070;52.382;5.270;2024-03-06T14:12:08;21.40;62.60
10062;DHT22;5070;52.382;5.270;2024-03-06T14:14:36;21.40;62.50
10062;DHT22;5070;52.382;5.270;2024-03-06T14:17:05;21.40;62.70
10062;DHT22;5070;52.382;5.270;2024-03-06T14:19:33;21.40;62.50
10062;DHT22;5070;52.382;5.270;2024-03-06T14:22:01;21.40;62.50
10062;DHT22;5070;52.382;5.270;2024-03-06T14:24:32;21.30;62.20
10062;DHT22;5070;52.382;5.270;2024-03-06T14:27:00;21.30;62.00
10062;DHT22;5070;52.382;5.270;2024-03-06T14:29:28;21.30;62.00
10062;DHT22;5070;52.382;5.270;2024-03-06T14:31:56;21.30;62.00
10062;DHT22;5070;52.382;5.270;2024-03-06T14:34:25;21.30;62.10
10062;DHT22;5070;52.382;5.270;2024-03-06T14:36:54;21.30;62.10
10062;DHT22;5070;52.382;5.270;2024-03-06T14:39:22;21.30;62.10
10062;DHT22;5070;52.382;5.270;2024-03-06T14:41:52;21.20;62.20
10062;DHT22;5070;52.382;5.270;2024-03-06T14:44:20;21.20;62.00
10062;DHT22;5070;52.382;5.270;2024-03-06T14:46:49;21.20;62.80
10062;DHT22;5070;52.382;5.270;2024-03-06T14:49:17;21.20;62.10
10062;DHT22;5070;52.382;5.270;2024-03-06T14:51:46;21.20;61.90
10062;DHT22;5070;52.382;5.270;2024-03-06T14:54:14;21.20;61.80
10062;DHT22;5070;52.382;5.270;2024-03-06T14:56:42;21.10;61.70
10062;DHT22;5070;52.382;5.270;2024-03-06T14:59:10;21.20;61.70
10062;DHT22;5070;52.382;5.270;2024-03-06T15:01:38;21.20;60.90
10062;DHT22;5070;52.382;5.270;2024-03-06T15:04:06;21.30;60.80
10062;DHT22;5070;52.382;5.270;2024-03-06T15:06:34;21.20;60.90
10062;DHT22;5070;52.382;5.270;2024-03-06T15:09:04;21.20;60.90
10062;DHT22;5070;52.382;5.270;2024-03-06T15:11:32;21.20;60.90
10062;DHT22;5070;52.382;5.270;2024-03-06T15:14:00;21.20;60.90
10062;DHT22;5070;52.382;5.270;2024-03-06T15:16:29;21.20;60.70
10062;DHT22;5070;52.382;5.270;2024-03-06T15:18:57;21.30;60.20
10062;DHT22;5070;52.382;5.270;2024-03-06T15:21:25;21.30;60.00
10062;DHT22;5070;52.382;5.270;2024-03-06T15:23:53;21.30;59.80
10062;DHT22;5070;52.382;5.270;2024-03-06T15:26:23;21.30;59.70
10062;DHT22;5070;52.382;5.270;2024-03-06T15:28:51;21.30;59.80
10062;DHT22;5070;52.382;5.270;2024-03-06T15:31:20;21.30;60.00
10062;DHT22;5070;52.382;5.270;2024-03-06T15:33:50;21.20;60.10
10062;DHT22;5070;52.382;5.270;2024-03-06T15:36:19;21.20;60.30
10062;DHT22;5070;52.382;5.270;2024-03-06T15:38:47;21.20;60.30
10062;DHT22;5070;52.382;5.270;2024-03-06T15:41:15;21.10;60.30
10062;DHT22;5070;52.382;5.270;2024-03-06T15:43:48;21.10;60.30
10062;DHT22;5070;52.382;5.270;2024-03-06T15:46:16;21.10;60.30
10062;DHT22;5070;52.382;5.270;2024-03-06T15:48:45;21.00;60.10
10062;DHT22;5070;52.382;5.270;2024-03-06T15:51:13;21.00;60.10
10062;DHT22;5070;52.382;5.270;2024-03-06T15:53:41;21.00;60.80
10062;DHT22;5070;52.382;5.270;2024-03-06T15:56:10;21.00;60.10
10062;DHT22;5070;52.382;5.270;2024-03-06T15:58:41;21.00;60.30
10062;DHT22;5070;52.382;5.270;2024-03-06T16:01:10;21.00;60.10
10062;DHT22;5070;52.382;5.270;2024-03-06T16:03:39;20.90;59.80